Data for 09/21/2018

Time Sea-Level Adjusted Pressure Absolute Pressure Temperature Relative Humidity Dew Point   
(mb) (inHg) (mb) (inHg) (C) (F) (%) (C) (F)
00:05 1023 30.21 852 25.16 7.1 44.9 54 -1.5 29.3
00:10 1023 30.21 852 25.16 7.1 44.7 55 -1.4 29.4
00:15 1023 30.21 852 25.16 7 44.6 55 -1.3 29.6
00:20 1023 30.21 852 25.16 6.7 44.1 56 -1.3 29.6
00:25 1023 30.21 852 25.16 6.6 43.9 56 -1.6 29.2
00:30 1023 30.21 852 25.16 6.7 44.1 55 -1.7 29
00:35 1023 30.21 852 25.16 6.8 44.2 55 -1.6 29.2
00:40 1023 30.21 852 25.16 6.7 44 56 -1.5 29.3
00:45 1023 30.21 852 25.16 6.6 44 56 -1.6 29.2
00:50 1023 30.21 852 25.16 6.7 44 56 -1.5 29.3
00:55 1023 30.21 852 25.16 6.8 44.2 56 -1.5 29.4
01:00 1023 30.21 852 25.16 6.8 44.2 56 -1.4 29.6
01:05 1023 30.21 852 25.16 6.6 43.9 58 -1.1 30
01:10 1023 30.21 852 25.16 6.4 43.6 58 -1.2 29.8
01:15 1023 30.21 852 25.16 6.4 43.5 59 -1.1 30
01:20 1023 30.21 852 25.16 6.3 43.4 59 -1 30.1
01:25 1023 30.21 852 25.16 6.1 43 60 -1 30.1
01:30 1023 30.21 852 25.16 6 42.9 61 -1 30.2
01:35 1023 30.21 852 25.16 5.9 42.6 61 -1.1 30.1
01:40 1023 30.21 852 25.16 5.9 42.6 61 -0.9 30.3
01:45 1023 30.21 852 25.16 5.9 42.7 61 -1 30.1
01:50 1023 30.21 852 25.16 6.1 42.9 61 -1 30.3
01:55 1023 30.21 852 25.16 6 42.9 60 -1.1 30.1
02:00 1023 30.21 852 25.16 6.1 43 61 -0.8 30.6
02:05 1023 30.21 852 25.16 6.1 42.9 61 -0.9 30.4
02:10 1023 30.21 852 25.16 6.1 42.9 61 -0.9 30.3
02:15 1023 30.21 852 25.16 6.1 42.9 62 -0.7 30.7
02:20 1023 30.21 852 25.16 5.9 42.6 62 -0.9 30.4
02:25 1023 30.21 852 25.16 5.8 42.5 62 -0.8 30.6
02:30 1023 30.21 852 25.16 5.6 42.1 63 -0.8 30.6
02:35 1023 30.21 852 25.16 5.4 41.8 63 -0.9 30.3
02:40 1023 30.21 852 25.16 5.5 41.9 63 -1 30.3
02:45 1023 30.21 852 25.16 5.4 41.7 64 -0.9 30.4
02:50 1023 30.21 852 25.16 5.5 41.8 63 -1 30.2
02:55 1023 30.21 852 25.16 5.4 41.8 63 -1 30.2
03:00 1023 30.21 852 25.16 5.3 41.6 64 -1 30.2
03:05 1023 30.21 852 25.16 5.1 41.2 64 -1.1 30
03:10 1023 30.21 852 25.16 4.9 40.9 65 -1.1 30
03:15 1023 30.21 852 25.16 4.9 40.9 64 -1.2 29.9
03:20 1022 30.18 852 25.16 4.9 40.8 65 -1.2 29.9
03:25 1022 30.18 852 25.16 4.8 40.6 65 -1.2 29.9
03:30 1022 30.18 852 25.16 4.8 40.7 65 -1.1 30
03:35 1022 30.18 852 25.16 4.9 40.8 65 -1.1 30
03:40 1022 30.18 852 25.16 5.1 41.2 64 -1.1 30
03:45 1022 30.18 852 25.16 5.1 41.2 64 -1 30.1
03:50 1022 30.18 852 25.16 5.2 41.3 64 -1.1 30
03:55 1022 30.18 852 25.16 5.2 41.4 64 -1.1 30.1
04:00 1022 30.18 852 25.16 5.1 41.3 64 -1 30.1
04:05 1022 30.18 852 25.16 4.9 40.8 65 -1.1 30.1
04:10 1022 30.18 852 25.16 4.6 40.3 66 -1.2 29.9
04:15 1022 30.18 852 25.16 4.5 40.1 66 -1.3 29.7
04:20 1023 30.21 852 25.16 4.5 40 66 -1.3 29.6
04:25 1023 30.21 852 25.16 4.5 40 66 -1.3 29.6
04:30 1023 30.21 852 25.16 4.4 40 67 -1.2 29.8
04:35 1023 30.21 852 25.16 4.4 39.9 67 -1.2 29.8
04:40 1023 30.21 852 25.16 4.4 39.9 67 -1.2 29.8
04:45 1023 30.21 852 25.16 4.4 39.8 67 -1.2 29.9
04:50 1023 30.21 852 25.16 4.4 39.9 67 -1.2 29.8
04:55 1023 30.21 852 25.16 4.4 39.9 67 -1.2 29.8
05:00 1023 30.21 852 25.16 4.4 40 67 -1.2 29.8
05:05 1023 30.21 852 25.16 4.4 39.9 66 -1.4 29.5
05:10 1023 30.21 852 25.16 4.6 40.2 66 -1.2 29.8
05:15 1023 30.21 852 25.16 4.5 40.1 66 -1.2 29.8
05:20 1023 30.21 852 25.16 4.5 40.2 66 -1.3 29.7
05:25 1023 30.21 852 25.16 4.5 40.2 66 -1.3 29.6
05:30 1023 30.21 852 25.16 4.5 40.1 66 -1.3 29.7
05:35 1023 30.21 852 25.16 4.3 39.7 66 -1.5 29.3
05:40 1023 30.21 852 25.16 4.3 39.7 65 -1.6 29.1
05:45 1023 30.21 852 25.16 4.3 39.7 65 -1.7 28.9
05:50 1023 30.21 852 25.16 4.3 39.8 64 -1.8 28.7
05:55 1023 30.21 852 25.16 4.5 40.1 64 -1.8 28.8
06:00 1023 30.21 852 25.16 4.5 40.1 65 -1.5 29.3
06:05 1023 30.21 852 25.16 4.2 39.6 66 -1.5 29.3
06:10 1023 30.21 852 25.16 4 39.1 67 -1.6 29.1
06:15 1023 30.21 852 25.16 4 39.1 66 -1.8 28.8
06:20 1023 30.21 852 25.16 3.9 39.1 66 -1.7 28.9
06:25 1023 30.21 852 25.16 4 39.2 66 -1.7 28.9
06:30 1023 30.21 852 25.16 4.1 39.3 67 -1.5 29.4
06:35 1023 30.21 852 25.16 4.1 39.4 66 -1.6 29.1
06:40 1023 30.21 852 25.16 4.1 39.4 66 -1.7 29
06:45 1023 30.21 852 25.16 4 39.3 66 -1.7 28.9
06:50 1023 30.21 852 25.16 4.1 39.4 64 -2 28.4
06:55 1023 30.21 852 25.16 4.2 39.5 64 -2 28.5
07:00 1023 30.21 852 25.16 4.1 39.4 64 -2.2 28.1
07:05 1023 30.21 852 25.16 4.1 39.3 64 -2.1 28.1
07:10 1023 30.21 852 25.16 4 39.2 64 -2.2 28.1
07:15 1023 30.21 852 25.16 4.4 40 63 -2 28.5
07:20 1023 30.21 852 25.16 4.3 39.7 65 -1.7 29
07:25 1023 30.21 852 25.16 3.9 38.9 67 -1.7 28.9
07:30 1023 30.21 852 25.16 3.7 38.6 67 -1.8 28.7
07:35 1023 30.21 852 25.16 3.6 38.4 68 -1.7 28.9
07:40 1023 30.21 852 25.16 3.6 38.5 68 -1.8 28.8
07:45 1023 30.21 852 25.16 3.8 38.9 66 -1.9 28.7
07:50 1023 30.21 853 25.19 4.1 39.5 65 -1.9 28.6
07:55 1023 30.21 853 25.19 4.5 40.1 64 -1.8 28.8
08:00 1023 30.21 853 25.19 5 40.9 63 -1.6 29.2
08:05 1023 30.21 853 25.19 5.2 41.4 61 -1.7 29
08:10 1023 30.21 853 25.19 5.4 41.8 59 -1.9 28.6
08:15 1023 30.21 853 25.19 5.4 41.8 59 -1.9 28.5
08:20 1023 30.21 853 25.19 5.5 42 59 -1.9 28.6
08:25 1024 30.24 853 25.19 5.9 42.5 57 -1.9 28.6
08:30 1024 30.24 853 25.19 6 42.7 58 -1.7 28.9
08:35 1024 30.24 853 25.19 6.1 42.9 57 -1.9 28.6
08:40 1024 30.24 853 25.19 6.6 43.9 55 -1.8 28.7
08:45 1024 30.24 853 25.19 7 44.5 53 -1.8 28.7
08:50 1024 30.24 853 25.19 6.9 44.4 53 -1.9 28.5
08:55 1024 30.24 853 25.19 7 44.7 53 -1.9 28.6
09:00 1024 30.24 853 25.19 7.5 45.5 51 -2 28.4
09:05 1024 30.24 853 25.19 8 46.5 49 -1.9 28.6
09:10 1023 30.21 853 25.19 8.5 47.3 50 -1.2 29.8
09:15 1023 30.21 853 25.19 8.3 46.9 51 -1.3 29.6
09:20 1023 30.21 853 25.19 8.5 47.4 49 -1.6 29
09:25 1023 30.21 853 25.19 8.6 47.5 49 -1.4 29.5
09:30 1024 30.24 853 25.19 9.1 48.4 48 -1.4 29.5
09:35 1024 30.24 853 25.19 10.1 50.2 43 -1.8 28.8
09:40 1024 30.24 853 25.19 10.6 51.1 43 -1.4 29.5
09:45 1024 30.24 853 25.19 10.6 51.2 42 -1.7 29
09:50 1023 30.21 853 25.19 10.9 51.5 43 -1.3 29.7
09:55 1024 30.24 853 25.19 10.6 51.1 42 -1.6 29.1
10:00 1023 30.21 853 25.19 10.9 51.6 42 -1.3 29.6
10:05 1023 30.21 853 25.19 10.8 51.4 42 -1.5 29.3
10:10 1023 30.21 853 25.19 11.1 52.1 42 -1.3 29.6
10:15 1023 30.21 853 25.19 11.6 52.8 40 -1.5 29.3
10:20 1023 30.21 853 25.19 12.2 53.9 37 -2.1 28.3
10:25 1023 30.21 853 25.19 12 53.7 40 -1.1 30.1
10:30 1023 30.21 853 25.19 11.9 53.3 40 -1.1 29.9
10:35 1023 30.21 853 25.19 11.9 53.5 39 -1.4 29.5
10:40 1023 30.21 852 25.16 11.5 52.7 42 -1.1 30.1
10:45 1023 30.21 852 25.16 11.1 51.9 42 -1.2 29.8
10:50 1023 30.21 852 25.16 11.6 52.9 39 -1.8 28.8
10:55 1023 30.21 852 25.16 12 53.6 38 -1.9 28.5
11:00 1023 30.21 852 25.16 12.6 54.7 37 -1.8 28.8
11:05 1023 30.21 852 25.16 13.1 55.6 37 -1.3 29.7
11:10 1023 30.21 852 25.16 13.9 56.9 34 -1.7 28.9
11:15 1023 30.21 852 25.16 14.7 58.5 32 -1.7 28.9
11:20 1023 30.21 852 25.16 15.3 59.5 32 -1.1 30.1
11:25 1023 30.21 852 25.16 14.7 58.4 33 -1.3 29.6
11:30 1023 30.21 852 25.16 14.7 58.5 32 -1.6 29.1
11:35 1023 30.21 852 25.16 14.2 57.5 34 -1.4 29.5
11:40 1023 30.21 852 25.16 14.8 58.6 33 -1.2 29.8
11:45 1023 30.21 852 25.16 15.1 59.1 33 -1.2 29.9
11:50 1022 30.18 852 25.16 15.3 59.5 33 -1 30.2
11:55 1022 30.18 852 25.16 15.3 59.5 31 -1.5 29.4
12:00 1022 30.18 852 25.16 15.6 60 32 -0.8 30.5
12:05 1022 30.18 852 25.16 15 59.1 33 -1 30.2
12:10 1022 30.18 851 25.13 15.1 59.2 32 -1.5 29.3
12:15 1022 30.18 851 25.13 15.4 59.6 31 -1.5 29.3
12:20 1022 30.18 851 25.13 16.3 61.3 31 -0.8 30.6
12:25 1022 30.18 851 25.13 16.1 60.9 31 -0.8 30.5
12:30 1022 30.18 851 25.13 15.8 60.5 31 -1.3 29.7
12:35 1022 30.18 851 25.13 16.6 61.9 29 -1.6 29.2
12:40 1022 30.18 851 25.13 17 62.6 28 -1.3 29.6
12:45 1022 30.18 851 25.13 16.8 62.2 26 -2.9 26.8
12:50 1022 30.18 851 25.13 17.4 63.2 25 -2.8 27
12:55 1022 30.18 851 25.13 17.3 63.1 28 -1.5 29.3
13:00 1022 30.18 851 25.13 16.8 62.2 28 -1.7 29
13:05 1022 30.18 851 25.13 17.9 64.2 25 -2.1 28.1
13:10 1022 30.18 851 25.13 19 66.2 26 -0.7 30.7
13:15 1022 30.18 851 25.13 18.6 65.4 27 -0.5 31.1
13:20 1021 30.15 851 25.13 18.5 65.2 25 -1.6 29.1
13:25 1021 30.15 851 25.13 19.4 66.9 22 -2.5 27.5
13:30 1021 30.15 851 25.13 19 66.2 23 -2.6 27.4
13:35 1021 30.15 850 25.1 18.5 65.3 24 -2.4 27.6
13:40 1021 30.15 850 25.1 18.1 64.7 25 -2 28.4
13:45 1021 30.15 850 25.1 18.9 65.9 23 -2.8 26.9
13:50 1021 30.15 850 25.1 19.4 66.9 25 -1.2 29.8
13:55 1021 30.15 850 25.1 19.7 67.5 22 -2.2 28.1
14:00 1021 30.15 850 25.1 19.2 66.6 24 -1.8 28.8
14:05 1021 30.15 850 25.1 20.6 69.2 21 -2.1 28.2
14:10 1021 30.15 850 25.1 21.3 70.4 20 -2.1 28.2
14:15 1021 30.15 850 25.1 21.6 70.8 19 -2.6 27.3
14:20 1021 30.15 850 25.1 21.1 70.1 21 -1.9 28.6
14:25 1021 30.15 850 25.1 20.4 68.8 22 -2.1 28.2
14:30 1021 30.15 850 25.1 19.8 67.7 21 -2.9 26.8
14:35 1021 30.15 850 25.1 20.2 68.4 23 -1.4 29.5
14:40 1021 30.15 850 25.1 21.1 70 20 -2.4 27.7
14:45 1021 30.15 850 25.1 21.7 71 21 -1.7 29
14:50 1021 30.15 850 25.1 21.6 70.9 20 -2.3 27.9
14:55 1021 30.15 850 25.1 22 71.5 18 -3 26.6
15:00 1021 30.15 850 25.1 22.1 71.9 19 -2.5 27.4
15:05 1021 30.15 850 25.1 22.3 72.1 20 -1.8 28.7
15:10 1021 30.15 850 25.1 22.2 71.9 19 -2.5 27.4
15:15 1021 30.15 850 25.1 21.8 71.3 20 -1.8 28.7
15:20 1020 30.12 850 25.1 22.3 72.1 19 -2.6 27.3
15:25 1020 30.12 850 25.1 22.9 73.2 18 -2.6 27.2
15:30 1020 30.12 850 25.1 22.9 73.2 18 -2.8 26.9
15:35 1020 30.12 850 25.1 23.3 74 17 -2.6 27.3
15:40 1020 30.12 850 25.1 23.7 74.7 16 -3.1 26.3
15:45 1020 30.12 850 25.1 23.5 74.3 16 -3.7 25.3
15:50 1020 30.12 849 25.07 22.7 72.9 17 -3.1 26.4
15:55 1020 30.12 849 25.07 22.5 72.5 17 -3.5 25.6
16:00 1020 30.12 849 25.07 22.7 72.9 18 -2.9 26.8
16:05 1020 30.12 849 25.07 22.9 73.2 17 -2.9 26.7
16:10 1020 30.12 849 25.07 22.8 73 17 -3.3 26.1
16:15 1020 30.12 849 25.07 23.1 73.5 18 -2.4 27.7
16:20 1020 30.12 849 25.07 23.1 73.6 19 -1.8 28.7
16:25 1020 30.12 849 25.07 22.5 72.4 17 -3.4 25.9
16:30 1020 30.12 849 25.07 22.9 73.3 17 -3 26.7
16:35 1020 30.12 849 25.07 22.9 73.1 17 -3.6 25.4
16:40 1020 30.12 849 25.07 22.9 73.2 17 -3.1 26.4
16:45 1020 30.12 849 25.07 23.1 73.5 18 -2.7 27.2
16:50 1020 30.12 849 25.07 22.7 72.8 18 -2.9 26.8
16:55 1020 30.12 849 25.07 22.4 72.2 18 -3.1 26.4
17:00 1020 30.12 849 25.07 23.4 74 16 -3.4 25.9
17:05 1020 30.12 849 25.07 22.6 72.7 17 -3.5 25.7
17:10 1020 30.12 849 25.07 22.2 72 18 -2.7 27.2
17:15 1020 30.12 849 25.07 22.1 71.8 19 -2.6 27.2
17:20 1020 30.12 849 25.07 22.1 71.8 18 -3.1 26.4
17:25 1020 30.12 849 25.07 21.7 71.1 20 -1.9 28.5
17:30 1020 30.12 849 25.07 21.4 70.6 20 -2.5 27.5
17:35 1020 30.12 849 25.07 21.6 70.8 19 -3.1 26.5
17:40 1020 30.12 849 25.07 21.3 70.3 20 -2.3 27.9
17:45 1020 30.12 849 25.07 21.5 70.8 19 -3.1 26.5
17:50 1020 30.12 849 25.07 22.3 72.1 18 -3.1 26.4
17:55 1020 30.12 849 25.07 22.9 73.2 18 -2.5 27.5
18:00 1020 30.12 849 25.07 22.2 72 20 -1.8 28.8
18:05 1020 30.12 849 25.07 21.5 70.6 19 -2.9 26.9
18:10 1020 30.12 849 25.07 21.3 70.4 20 -2.6 27.4
18:15 1020 30.12 849 25.07 21.2 70.2 20 -2.5 27.5
18:20 1020 30.12 849 25.07 20.9 69.7 21 -2 28.4
18:25 1020 30.12 849 25.07 20.7 69.2 21 -2 28.4
18:30 1020 30.12 849 25.07 20.4 68.7 22 -1.9 28.6
18:35 1020 30.12 849 25.07 20.2 68.3 22 -2.2 28.1
18:40 1020 30.12 849 25.07 20.1 68.1 22 -2.2 28
18:45 1020 30.12 849 25.07 20 68.1 22 -1.9 28.5
18:50 1020 30.12 849 25.07 20.1 68.1 22 -2.2 28
18:55 1020 30.12 849 25.07 20 68 21 -2.7 27.2
19:00 1020 30.12 849 25.07 20 67.9 20 -3.3 26.1
19:05 1019 30.09 849 25.07 19.9 67.9 21 -2.7 27.2
19:10 1020 30.12 849 25.07 19.9 67.8 24 -1 30.2
19:15 1020 30.12 849 25.07 19.7 67.4 24 -1.3 29.6
19:20 1020 30.12 849 25.07 19.5 67.2 25 -0.7 30.7
19:25 1020 30.12 849 25.07 18.4 65.1 33 2 35.6
19:30 1020 30.12 849 25.07 17.4 63.4 36 2.1 35.8
19:35 1020 30.12 849 25.07 16.7 62.1 36 1.9 35.3
19:40 1020 30.12 849 25.07 16.3 61.3 37 1.7 35
19:45 1020 30.12 849 25.07 15.9 60.6 37 1.4 34.5
19:50 1020 30.12 849 25.07 15.6 60.1 39 1.8 35.3
19:55 1020 30.12 849 25.07 15.1 59.2 40 1.6 34.9
20:00 1020 30.12 849 25.07 14.8 58.7 39 1.2 34.2
20:05 1020 30.12 849 25.07 14.7 58.4 40 1.3 34.3
20:10 1020 30.12 849 25.07 14.6 58.2 39 0.9 33.7
20:15 1020 30.12 849 25.07 14.4 57.8 40 1.1 34
20:20 1020 30.12 849 25.07 14.1 57.3 42 1.3 34.4
20:25 1020 30.12 849 25.07 13.6 56.5 45 1.9 35.5
20:30 1020 30.12 849 25.07 13.2 55.7 44 1.2 34.1
20:35 1020 30.12 849 25.07 13.1 55.6 44 1.2 34.2
20:40 1020 30.12 849 25.07 13 55.3 43 0.6 33.1
20:45 1020 30.12 849 25.07 13 55.3 42 0.3 32.5
20:50 1020 30.12 849 25.07 13 55.5 40 -0.3 31.5
20:55 1020 30.12 849 25.07 13.3 55.9 39 -0.4 31.2
21:00 1020 30.12 849 25.07 13.4 56.1 37 -1.1 30.1
21:05 1020 30.12 849 25.07 13.6 56.4 37 -0.8 30.6
21:10 1020 30.12 849 25.07 13.6 56.6 34 -1.9 28.6
21:15 1020 30.12 849 25.07 13.7 56.6 34 -2 28.5
21:20 1020 30.12 849 25.07 13.8 56.8 33 -2.1 28.3
21:25 1020 30.12 849 25.07 13.7 56.7 34 -1.6 29
21:30 1020 30.12 849 25.07 13.7 56.6 34 -1.7 28.9
21:35 1020 30.12 849 25.07 13.4 56.2 36 -1.3 29.6
21:40 1020 30.12 849 25.07 13.2 55.7 36 -1.5 29.4
21:45 1020 30.12 849 25.07 13.3 55.9 36 -1.3 29.6
21:50 1020 30.12 849 25.07 13.2 55.8 36 -1.4 29.4
21:55 1020 30.12 849 25.07 13.3 55.9 36 -1.5 29.3
22:00 1020 30.12 849 25.07 13.2 55.7 34 -2.3 27.9
22:05 1020 30.12 849 25.07 13.3 56 35 -1.9 28.6
22:10 1020 30.12 849 25.07 13.4 56 34 -2.3 27.9
22:15 1020 30.12 849 25.07 13.4 56.1 34 -2.2 28.1
22:20 1020 30.12 849 25.07 13.2 55.8 33 -2.4 27.6
22:25 1020 30.12 849 25.07 13.2 55.8 33 -2.4 27.6
22:30 1020 30.12 849 25.07 13.1 55.5 34 -2.2 28
22:35 1020 30.12 849 25.07 12.9 55.3 35 -2.3 27.9
22:40 1020 30.12 849 25.07 13 55.4 33 -2.6 27.2
22:45 1019 30.09 849 25.07 13.2 55.7 33 -2.6 27.3
22:50 1019 30.09 849 25.07 13.2 55.7 33 -2.6 27.3
22:55 1019 30.09 849 25.07 13.2 55.7 33 -2.9 26.8
23:00 1019 30.09 849 25.07 13.2 55.7 33 -2.8 26.9
23:05 1019 30.09 849 25.07 13.1 55.7 32 -2.9 26.7
23:10 1019 30.09 849 25.07 13.2 55.8 33 -2.7 27.1
23:15 1019 30.09 849 25.07 13.3 55.9 32 -2.9 26.8
23:20 1019 30.09 848 25.04 13.2 55.7 33 -2.6 27.3
23:25 1019 30.09 848 25.04 13 55.3 33 -3 26.6
23:30 1019 30.09 848 25.04 12.9 55.2 34 -2.7 27.2
23:35 1019 30.09 848 25.04 12.9 55.1 34 -2.7 27.1
23:40 1019 30.09 848 25.04 12.7 54.9 34 -2.6 27.3
23:45 1019 30.09 848 25.04 12.6 54.8 34 -2.9 26.8
23:50 1019 30.09 848 25.04 12.7 54.8 34 -2.7 27.1
23:55 1019 30.09 848 25.04 12.6 54.7 34 -2.9 26.8
24:00 1019 30.09 848 25.04 12.6 54.7 34 -2.9 26.8